FDX116 KLAX-KDEN
Flight info
| Callsign | FDX116 |
|---|---|
| Flight time | 1h 57m |
| Altitude | 35000 |
| Route | ORCKA5 LAS J146 DICEE BUMMP SSKII4 |
| Aircraft | B77L/H-SDE1E2E3FGHIJ2J3J4J5M1RWXY/LB1D1 |
Departure
| Time | 2026-05-06 22:48 |
|---|---|
| Airport | Los Angeles International Airport (KLAX) |
Arrival
| Time | 2026-05-07 00:45 |
|---|---|
| Airport | Denver International Airport (KDEN) |
| Time | Latitude | Longitude | Altitude | Speed | Heading |
|---|---|---|---|---|---|
| 2026-05-06 22:17 | 33.93404 | -118.38838 | 125 ft | 0 kts | 173° |
| 2026-05-06 22:39 | 33.93416 | -118.38840 | 126 ft | 4 kts | 171° |
| 2026-05-06 22:39 | 33.93442 | -118.38846 | 125 ft | 4 kts | 165° |
| 2026-05-06 22:39 | 33.93468 | -118.38856 | 125 ft | 4 kts | 158° |
| 2026-05-06 22:40 | 33.93493 | -118.38870 | 125 ft | 4 kts | 149° |
| 2026-05-06 22:40 | 33.93515 | -118.38888 | 125 ft | 4 kts | 138° |
| 2026-05-06 22:40 | 33.93533 | -118.38912 | 125 ft | 4 kts | 122° |
| 2026-05-06 22:40 | 33.93544 | -118.38940 | 125 ft | 4 kts | 95° |
| 2026-05-06 22:41 | 33.93544 | -118.38953 | 125 ft | 0 kts | 83° |
| 2026-05-06 22:45 | 33.93545 | -118.38941 | 125 ft | 3 kts | 83° |
| 2026-05-06 22:45 | 33.93549 | -118.38901 | 125 ft | 7 kts | 83° |
| 2026-05-06 22:45 | 33.93556 | -118.38833 | 130 ft | 10 kts | 83° |
| 2026-05-06 22:46 | 33.93566 | -118.38737 | 127 ft | 13 kts | 83° |
| 2026-05-06 22:46 | 33.93578 | -118.38618 | 126 ft | 16 kts | 83° |
| 2026-05-06 22:46 | 33.93591 | -118.38487 | 130 ft | 16 kts | 83° |
| 2026-05-06 22:46 | 33.93604 | -118.38356 | 129 ft | 16 kts | 83° |
| 2026-05-06 22:47 | 33.93679 | -118.38286 | 126 ft | 16 kts | 356° |
| 2026-05-06 22:47 | 33.93727 | -118.38386 | 126 ft | 16 kts | 264° |
| 2026-05-06 22:47 | 33.93699 | -118.38650 | 129 ft | 61 kts | 262° |
| 2026-05-06 22:47 | 33.93618 | -118.39439 | 129 ft | 126 kts | 263° |
| 2026-05-06 22:48 | 33.93476 | -118.40686 | 242 ft | 163 kts | 262° |
| 2026-05-06 22:48 | 33.93330 | -118.42069 | 820 ft | 166 kts | 261° |
| 2026-05-06 22:48 | 33.93185 | -118.43481 | 1507 ft | 171 kts | 262° |
| 2026-05-06 22:48 | 33.93043 | -118.44959 | 2032 ft | 187 kts | 264° |
| 2026-05-06 22:49 | 33.92801 | -118.46610 | 2239 ft | 213 kts | 254° |
| 2026-05-06 22:49 | 33.92272 | -118.48404 | 2524 ft | 240 kts | 250° |
| 2026-05-06 22:49 | 33.91626 | -118.50341 | 3081 ft | 257 kts | 249° |
| 2026-05-06 22:49 | 33.90924 | -118.52390 | 3677 ft | 270 kts | 249° |
| 2026-05-06 22:50 | 33.90213 | -118.54502 | 4500 ft | 274 kts | 249° |
| 2026-05-06 22:50 | 33.89508 | -118.56615 | 5340 ft | 277 kts | 250° |
| 2026-05-06 22:50 | 33.88500 | -118.58621 | 5884 ft | 290 kts | 223° |
| 2026-05-06 22:50 | 33.86721 | -118.59729 | 6631 ft | 291 kts | 188° |
| 2026-05-06 22:51 | 33.84744 | -118.59532 | 7431 ft | 287 kts | 155° |
| 2026-05-06 22:51 | 33.83113 | -118.58210 | 8148 ft | 284 kts | 128° |
| 2026-05-06 22:51 | 33.82101 | -118.56216 | 8938 ft | 278 kts | 105° |
| 2026-05-06 22:51 | 33.81863 | -118.53946 | 9722 ft | 274 kts | 80° |
| 2026-05-06 22:52 | 33.82484 | -118.51813 | 10427 ft | 274 kts | 55° |
| 2026-05-06 22:52 | 33.83874 | -118.50150 | 10657 ft | 295 kts | 33° |
| 2026-05-06 22:52 | 33.85730 | -118.48882 | 10837 ft | 319 kts | 30° |
| 2026-05-06 22:52 | 33.87741 | -118.47510 | 11049 ft | 345 kts | 31° |
| 2026-05-06 22:53 | 33.89856 | -118.46040 | 11674 ft | 356 kts | 31° |
| 2026-05-06 22:53 | 33.91920 | -118.44319 | 12451 ft | 365 kts | 40° |
| 2026-05-06 22:53 | 33.93764 | -118.42193 | 13441 ft | 369 kts | 47° |
| 2026-05-06 22:53 | 33.95375 | -118.39766 | 14293 ft | 374 kts | 54° |
| 2026-05-06 22:54 | 33.96829 | -118.37132 | 15097 ft | 379 kts | 55° |
| 2026-05-06 22:54 | 33.98296 | -118.34484 | 15932 ft | 382 kts | 55° |
| 2026-05-06 22:54 | 33.99798 | -118.31812 | 16741 ft | 386 kts | 54° |
| 2026-05-06 22:54 | 34.01302 | -118.29155 | 17550 ft | 391 kts | 54° |
| 2026-05-06 22:55 | 34.02846 | -118.26433 | 18339 ft | 396 kts | 54° |
| 2026-05-06 22:55 | 34.04414 | -118.23669 | 18988 ft | 401 kts | 54° |
| 2026-05-06 22:55 | 34.05998 | -118.20875 | 19673 ft | 404 kts | 54° |
| 2026-05-06 22:55 | 34.07591 | -118.18061 | 20353 ft | 408 kts | 54° |
| 2026-05-06 22:56 | 34.09200 | -118.15217 | 21052 ft | 412 kts | 54° |
| 2026-05-06 22:56 | 34.10821 | -118.12347 | 21751 ft | 416 kts | 54° |
| 2026-05-06 22:56 | 34.12457 | -118.09447 | 22415 ft | 420 kts | 54° |
| 2026-05-06 22:56 | 34.14108 | -118.06521 | 23091 ft | 424 kts | 54° |
| 2026-05-06 22:57 | 34.15770 | -118.03573 | 23781 ft | 426 kts | 54° |
| 2026-05-06 22:57 | 34.17419 | -118.00647 | 24361 ft | 428 kts | 54° |
| 2026-05-06 22:57 | 34.19097 | -117.97665 | 24893 ft | 430 kts | 54° |
| 2026-05-06 22:57 | 34.20803 | -117.94632 | 25399 ft | 433 kts | 54° |
| 2026-05-06 22:58 | 34.22479 | -117.91646 | 25960 ft | 435 kts | 54° |
| 2026-05-06 22:58 | 34.24186 | -117.88605 | 26497 ft | 439 kts | 54° |
| 2026-05-06 22:58 | 34.25904 | -117.85537 | 27013 ft | 441 kts | 54° |
| 2026-05-06 22:58 | 34.27634 | -117.82449 | 27510 ft | 445 kts | 54° |
| 2026-05-06 22:59 | 34.29375 | -117.79340 | 27981 ft | 448 kts | 54° |
| 2026-05-06 22:59 | 34.31123 | -117.76212 | 28459 ft | 451 kts | 54° |
| 2026-05-06 22:59 | 34.32888 | -117.73053 | 28916 ft | 454 kts | 54° |
| 2026-05-06 22:59 | 34.34657 | -117.69886 | 29370 ft | 456 kts | 54° |
| 2026-05-06 23:00 | 34.36463 | -117.66711 | 29822 ft | 458 kts | 53° |
| 2026-05-06 23:00 | 34.38332 | -117.63560 | 30259 ft | 460 kts | 53° |
| 2026-05-06 23:00 | 34.40189 | -117.60483 | 30734 ft | 458 kts | 52° |
| 2026-05-06 23:00 | 34.42069 | -117.57376 | 31281 ft | 455 kts | 52° |
| 2026-05-06 23:01 | 34.43932 | -117.54287 | 31831 ft | 453 kts | 52° |
| 2026-05-06 23:01 | 34.45780 | -117.51208 | 32398 ft | 451 kts | 52° |
| 2026-05-06 23:01 | 34.47615 | -117.48136 | 32909 ft | 449 kts | 52° |
| 2026-05-06 23:01 | 34.49438 | -117.45075 | 33444 ft | 446 kts | 53° |
| 2026-05-06 23:02 | 34.51245 | -117.42034 | 34015 ft | 443 kts | 53° |
| 2026-05-06 23:02 | 34.53045 | -117.39002 | 34429 ft | 442 kts | 53° |
| 2026-05-06 23:02 | 34.54837 | -117.35980 | 34759 ft | 442 kts | 53° |
| 2026-05-06 23:02 | 34.56634 | -117.32948 | 35017 ft | 443 kts | 53° |
| 2026-05-06 23:03 | 34.58445 | -117.29889 | 35061 ft | 447 kts | 53° |
| 2026-05-06 23:03 | 34.62050 | -117.23795 | 35071 ft | 443 kts | 53° |
| 2026-05-06 23:04 | 34.65621 | -117.17744 | 34990 ft | 440 kts | 53° |
| 2026-05-06 23:04 | 34.69180 | -117.11706 | 35000 ft | 439 kts | 53° |
| 2026-05-06 23:05 | 34.72732 | -117.05670 | 35013 ft | 439 kts | 53° |
| 2026-05-06 23:05 | 34.76288 | -116.99616 | 35011 ft | 440 kts | 53° |
| 2026-05-06 23:06 | 34.79838 | -116.93562 | 35018 ft | 440 kts | 53° |
| 2026-05-06 23:06 | 34.83391 | -116.87493 | 35017 ft | 440 kts | 53° |
| 2026-05-06 23:07 | 34.86945 | -116.81410 | 35031 ft | 441 kts | 53° |
| 2026-05-06 23:07 | 34.90499 | -116.75319 | 35028 ft | 441 kts | 53° |
| 2026-05-06 23:08 | 34.94348 | -116.69570 | 35024 ft | 440 kts | 46° |
| 2026-05-06 23:08 | 34.98531 | -116.64123 | 35013 ft | 440 kts | 46° |
| 2026-05-06 23:09 | 35.02711 | -116.58657 | 34995 ft | 440 kts | 46° |
| 2026-05-06 23:09 | 35.06875 | -116.53173 | 34988 ft | 440 kts | 46° |
| 2026-05-06 23:10 | 35.11034 | -116.47676 | 34977 ft | 441 kts | 46° |
| 2026-05-06 23:10 | 35.15170 | -116.42199 | 34973 ft | 441 kts | 46° |
| 2026-05-06 23:11 | 35.19330 | -116.36682 | 34979 ft | 441 kts | 46° |
| 2026-05-06 23:11 | 35.23500 | -116.31144 | 34990 ft | 441 kts | 46° |
| 2026-05-06 23:12 | 35.27636 | -116.25640 | 34992 ft | 442 kts | 46° |
| 2026-05-06 23:12 | 35.31800 | -116.20092 | 34990 ft | 442 kts | 46° |
| 2026-05-06 23:13 | 35.35972 | -116.14521 | 34976 ft | 443 kts | 46° |
| 2026-05-06 23:13 | 35.40144 | -116.08944 | 34990 ft | 443 kts | 46° |
| 2026-05-06 23:14 | 35.44306 | -116.03372 | 34996 ft | 443 kts | 46° |
| 2026-05-06 23:14 | 35.48441 | -115.97824 | 35007 ft | 443 kts | 46° |
| 2026-05-06 23:15 | 35.52593 | -115.92245 | 35018 ft | 443 kts | 46° |
| 2026-05-06 23:15 | 35.56747 | -115.86653 | 35026 ft | 443 kts | 46° |
| 2026-05-06 23:16 | 35.60897 | -115.81058 | 35023 ft | 442 kts | 46° |
| 2026-05-06 23:16 | 35.65027 | -115.75468 | 35027 ft | 442 kts | 46° |
| 2026-05-06 23:17 | 35.68441 | -115.70784 | 35032 ft | 441 kts | 47° |
| 2026-05-06 23:17 | 35.72533 | -115.65148 | 35033 ft | 441 kts | 47° |
| 2026-05-06 23:18 | 35.76626 | -115.59508 | 35041 ft | 442 kts | 47° |
| 2026-05-06 23:18 | 35.80697 | -115.53895 | 35038 ft | 442 kts | 47° |
| 2026-05-06 23:19 | 35.84787 | -115.48245 | 35026 ft | 442 kts | 46° |
| 2026-05-06 23:19 | 35.88892 | -115.42567 | 35037 ft | 444 kts | 46° |
| 2026-05-06 23:20 | 35.93005 | -115.36868 | 35051 ft | 445 kts | 47° |
| 2026-05-06 23:20 | 35.97130 | -115.31141 | 35062 ft | 447 kts | 47° |
| 2026-05-06 23:21 | 36.01264 | -115.25391 | 35051 ft | 447 kts | 47° |
| 2026-05-06 23:21 | 36.05337 | -115.19610 | 35009 ft | 446 kts | 51° |
| 2026-05-06 23:22 | 36.08631 | -115.13149 | 35012 ft | 448 kts | 59° |
| 2026-05-06 23:22 | 36.11120 | -115.06070 | 35010 ft | 450 kts | 66° |
| 2026-05-06 23:23 | 36.13283 | -114.98816 | 34950 ft | 449 kts | 66° |
| 2026-05-06 23:23 | 36.15464 | -114.91587 | 34947 ft | 448 kts | 66° |
| 2026-05-06 23:24 | 36.17668 | -114.84353 | 34921 ft | 448 kts | 66° |
| 2026-05-06 23:24 | 36.19873 | -114.77138 | 34927 ft | 448 kts | 66° |
| 2026-05-06 23:25 | 36.22087 | -114.69928 | 34917 ft | 448 kts | 66° |
| 2026-05-06 23:25 | 36.24291 | -114.62738 | 34909 ft | 448 kts | 66° |
| 2026-05-06 23:26 | 36.26503 | -114.55499 | 34897 ft | 449 kts | 66° |
| 2026-05-06 23:26 | 36.28709 | -114.48252 | 34902 ft | 450 kts | 65° |
| 2026-05-06 23:27 | 36.30916 | -114.40981 | 34900 ft | 451 kts | 66° |
| 2026-05-06 23:27 | 36.33122 | -114.33697 | 34901 ft | 451 kts | 65° |
| 2026-05-06 23:28 | 36.35310 | -114.26454 | 34902 ft | 451 kts | 65° |
| 2026-05-06 23:28 | 36.37507 | -114.19160 | 34927 ft | 451 kts | 66° |
| 2026-05-06 23:29 | 36.39700 | -114.11863 | 34906 ft | 451 kts | 66° |
| 2026-05-06 23:29 | 36.41884 | -114.04576 | 34915 ft | 450 kts | 66° |
| 2026-05-06 23:30 | 36.44064 | -113.97287 | 34931 ft | 449 kts | 66° |
| 2026-05-06 23:30 | 36.46236 | -113.90003 | 34933 ft | 449 kts | 66° |
| 2026-05-06 23:31 | 36.48402 | -113.82718 | 34945 ft | 450 kts | 66° |
| 2026-05-06 23:31 | 36.50554 | -113.75465 | 34940 ft | 450 kts | 66° |
| 2026-05-06 23:32 | 36.52717 | -113.68156 | 34952 ft | 451 kts | 66° |
| 2026-05-06 23:32 | 36.54880 | -113.60826 | 34967 ft | 451 kts | 66° |
| 2026-05-06 23:33 | 36.57039 | -113.53488 | 34960 ft | 452 kts | 66° |
| 2026-05-06 23:33 | 36.59199 | -113.46131 | 34970 ft | 452 kts | 66° |
| 2026-05-06 23:34 | 36.61342 | -113.38812 | 34981 ft | 453 kts | 66° |
| 2026-05-06 23:34 | 36.63492 | -113.31440 | 34980 ft | 453 kts | 66° |
| 2026-05-06 23:35 | 36.65626 | -113.24058 | 34976 ft | 452 kts | 66° |
| 2026-05-06 23:35 | 36.67751 | -113.16681 | 35017 ft | 452 kts | 66° |
| 2026-05-06 23:36 | 36.69870 | -113.09310 | 35047 ft | 452 kts | 66° |
| 2026-05-06 23:36 | 36.71986 | -113.01930 | 35049 ft | 452 kts | 66° |
| 2026-05-06 23:37 | 36.74096 | -112.94553 | 35062 ft | 452 kts | 66° |
| 2026-05-06 23:37 | 36.76188 | -112.87220 | 35056 ft | 452 kts | 66° |
| 2026-05-06 23:38 | 36.78292 | -112.79824 | 35032 ft | 452 kts | 66° |
| 2026-05-06 23:38 | 36.80392 | -112.72420 | 35024 ft | 452 kts | 66° |
| 2026-05-06 23:39 | 36.82488 | -112.65012 | 34986 ft | 453 kts | 66° |
| 2026-05-06 23:39 | 36.84581 | -112.57594 | 34967 ft | 453 kts | 66° |
| 2026-05-06 23:40 | 36.86671 | -112.50164 | 34967 ft | 453 kts | 66° |
| 2026-05-06 23:40 | 36.88741 | -112.42792 | 34982 ft | 453 kts | 66° |
| 2026-05-06 23:41 | 36.90828 | -112.35361 | 34967 ft | 453 kts | 66° |
| 2026-05-06 23:41 | 36.92913 | -112.27929 | 34968 ft | 453 kts | 66° |
| 2026-05-06 23:42 | 36.94995 | -112.20487 | 34964 ft | 453 kts | 66° |
| 2026-05-06 23:42 | 36.97071 | -112.13051 | 34955 ft | 453 kts | 66° |
| 2026-05-06 23:43 | 36.99141 | -112.05610 | 34933 ft | 453 kts | 66° |
| 2026-05-06 23:43 | 37.01208 | -111.98161 | 34937 ft | 453 kts | 66° |
| 2026-05-06 23:44 | 37.03269 | -111.90714 | 34916 ft | 453 kts | 66° |
| 2026-05-06 23:44 | 37.05326 | -111.83256 | 34909 ft | 453 kts | 66° |
| 2026-05-06 23:45 | 37.07366 | -111.75843 | 34906 ft | 453 kts | 66° |
| 2026-05-06 23:45 | 37.09416 | -111.68373 | 34892 ft | 454 kts | 66° |
| 2026-05-06 23:46 | 37.11465 | -111.60882 | 34897 ft | 453 kts | 66° |
| 2026-05-06 23:46 | 37.13506 | -111.53399 | 34970 ft | 454 kts | 66° |
| 2026-05-06 23:47 | 37.15531 | -111.45955 | 34950 ft | 454 kts | 66° |
| 2026-05-06 23:47 | 37.17561 | -111.38471 | 34959 ft | 454 kts | 66° |
| 2026-05-06 23:48 | 37.19589 | -111.30976 | 34925 ft | 454 kts | 66° |
| 2026-05-06 23:48 | 37.21631 | -111.23472 | 34920 ft | 453 kts | 65° |
| 2026-05-06 23:49 | 37.24255 | -111.16335 | 34900 ft | 449 kts | 59° |
| 2026-05-06 23:49 | 37.27064 | -111.09392 | 34920 ft | 450 kts | 58° |
| 2026-05-06 23:50 | 37.29883 | -111.02366 | 34932 ft | 450 kts | 59° |
| 2026-05-06 23:50 | 37.34084 | -110.91793 | 34938 ft | 450 kts | 59° |
| 2026-05-06 23:51 | 37.36868 | -110.84749 | 34952 ft | 450 kts | 59° |
| 2026-05-06 23:51 | 37.39646 | -110.77706 | 34965 ft | 450 kts | 59° |
| 2026-05-06 23:52 | 37.42424 | -110.70656 | 34962 ft | 450 kts | 59° |
| 2026-05-06 23:52 | 37.45184 | -110.63633 | 34959 ft | 450 kts | 59° |
| 2026-05-06 23:53 | 37.47957 | -110.56559 | 34977 ft | 450 kts | 59° |
| 2026-05-06 23:53 | 37.50724 | -110.49483 | 34976 ft | 450 kts | 59° |
| 2026-05-06 23:54 | 37.53477 | -110.42427 | 34988 ft | 451 kts | 59° |
| 2026-05-06 23:54 | 37.56247 | -110.35309 | 34989 ft | 451 kts | 59° |
| 2026-05-06 23:55 | 37.59014 | -110.28191 | 35031 ft | 451 kts | 59° |
| 2026-05-06 23:55 | 37.61760 | -110.21108 | 34996 ft | 453 kts | 59° |
| 2026-05-06 23:56 | 37.64519 | -110.13970 | 35020 ft | 452 kts | 59° |
| 2026-05-06 23:56 | 37.67276 | -110.06824 | 35053 ft | 453 kts | 59° |
| 2026-05-06 23:57 | 37.70031 | -109.99668 | 35037 ft | 453 kts | 59° |
| 2026-05-06 23:57 | 37.72777 | -109.92517 | 35057 ft | 452 kts | 59° |
| 2026-05-06 23:58 | 37.75523 | -109.85348 | 35065 ft | 452 kts | 59° |
| 2026-05-06 23:58 | 37.78250 | -109.78217 | 35072 ft | 452 kts | 59° |
| 2026-05-06 23:59 | 37.80984 | -109.71045 | 35079 ft | 453 kts | 59° |
| 2026-05-06 23:59 | 37.83712 | -109.63874 | 35104 ft | 452 kts | 59° |
| 2026-05-07 00:00 | 37.86439 | -109.56690 | 35104 ft | 453 kts | 59° |
| 2026-05-07 00:00 | 37.88708 | -109.50702 | 35096 ft | 454 kts | 60° |
| 2026-05-07 00:01 | 37.91880 | -109.42308 | 35100 ft | 455 kts | 60° |
| 2026-05-07 00:01 | 37.94612 | -109.35059 | 35084 ft | 455 kts | 60° |
| 2026-05-07 00:02 | 37.97338 | -109.27808 | 35091 ft | 455 kts | 59° |
| 2026-05-07 00:02 | 38.00040 | -109.20602 | 35088 ft | 455 kts | 59° |
| 2026-05-07 00:03 | 38.02753 | -109.13354 | 35087 ft | 455 kts | 59° |
| 2026-05-07 00:03 | 38.05462 | -109.06098 | 35089 ft | 455 kts | 59° |
| 2026-05-07 00:04 | 38.08169 | -108.98832 | 35085 ft | 455 kts | 59° |
| 2026-05-07 00:04 | 38.10422 | -108.92783 | 35057 ft | 456 kts | 59° |
| 2026-05-07 00:05 | 38.13235 | -108.85580 | 35083 ft | 455 kts | 58° |
| 2026-05-07 00:05 | 38.16089 | -108.78397 | 35070 ft | 455 kts | 58° |
| 2026-05-07 00:06 | 38.18926 | -108.71206 | 35073 ft | 455 kts | 58° |
| 2026-05-07 00:06 | 38.21747 | -108.64004 | 35073 ft | 455 kts | 58° |
| 2026-05-07 00:07 | 38.24556 | -108.56807 | 35070 ft | 454 kts | 58° |
| 2026-05-07 00:07 | 38.27363 | -108.49598 | 35068 ft | 453 kts | 58° |
| 2026-05-07 00:08 | 38.30158 | -108.42405 | 35098 ft | 453 kts | 58° |
| 2026-05-07 00:08 | 38.32927 | -108.35262 | 35088 ft | 453 kts | 58° |
| 2026-05-07 00:09 | 38.35715 | -108.28053 | 35093 ft | 454 kts | 58° |
| 2026-05-07 00:09 | 38.38505 | -108.20822 | 35110 ft | 455 kts | 58° |
| 2026-05-07 00:10 | 38.41295 | -108.13576 | 35126 ft | 455 kts | 58° |
| 2026-05-07 00:10 | 38.44084 | -108.06312 | 35154 ft | 455 kts | 58° |
| 2026-05-07 00:11 | 38.46867 | -107.99042 | 35175 ft | 455 kts | 59° |
| 2026-05-07 00:11 | 38.49608 | -107.91801 | 35173 ft | 455 kts | 59° |
| 2026-05-07 00:12 | 38.52351 | -107.84520 | 35173 ft | 455 kts | 59° |
| 2026-05-07 00:12 | 38.53724 | -107.80875 | 35063 ft | 455 kts | 59° |
| 2026-05-07 00:12 | 38.55092 | -107.77238 | 35056 ft | 455 kts | 59° |
| 2026-05-07 00:13 | 38.57827 | -107.69956 | 35074 ft | 455 kts | 59° |
| 2026-05-07 00:13 | 38.60566 | -107.62649 | 35043 ft | 455 kts | 59° |
| 2026-05-07 00:14 | 38.63283 | -107.55382 | 35049 ft | 456 kts | 59° |
| 2026-05-07 00:14 | 38.66012 | -107.48069 | 35055 ft | 456 kts | 59° |
| 2026-05-07 00:15 | 38.68782 | -107.40752 | 35063 ft | 456 kts | 59° |
| 2026-05-07 00:15 | 38.71561 | -107.33431 | 35074 ft | 458 kts | 59° |
| 2026-05-07 00:16 | 38.74343 | -107.26070 | 35056 ft | 458 kts | 59° |
| 2026-05-07 00:16 | 38.77110 | -107.18717 | 35055 ft | 458 kts | 59° |
| 2026-05-07 00:17 | 38.79869 | -107.11368 | 35048 ft | 456 kts | 59° |
| 2026-05-07 00:17 | 38.82598 | -107.04079 | 35086 ft | 455 kts | 59° |
| 2026-05-07 00:18 | 38.85332 | -106.96762 | 35062 ft | 455 kts | 59° |
| 2026-05-07 00:18 | 38.88068 | -106.89426 | 35058 ft | 455 kts | 59° |
| 2026-05-07 00:19 | 38.90802 | -106.82075 | 35078 ft | 457 kts | 59° |
| 2026-05-07 00:19 | 38.93542 | -106.74688 | 35080 ft | 458 kts | 59° |
| 2026-05-07 00:20 | 38.96279 | -106.67285 | 35086 ft | 459 kts | 59° |
| 2026-05-07 00:20 | 38.97649 | -106.63578 | 34968 ft | 460 kts | 59° |
| 2026-05-07 00:20 | 38.98988 | -106.59943 | 34763 ft | 451 kts | 59° |
| 2026-05-07 00:21 | 39.00314 | -106.56333 | 34417 ft | 443 kts | 59° |
| 2026-05-07 00:21 | 39.01623 | -106.52762 | 33889 ft | 440 kts | 59° |
| 2026-05-07 00:21 | 39.02922 | -106.49210 | 33329 ft | 436 kts | 59° |
| 2026-05-07 00:21 | 39.04206 | -106.45699 | 32828 ft | 432 kts | 58° |
| 2026-05-07 00:22 | 39.05480 | -106.42211 | 32316 ft | 428 kts | 58° |
| 2026-05-07 00:22 | 39.06740 | -106.38761 | 31836 ft | 425 kts | 58° |
| 2026-05-07 00:22 | 39.07991 | -106.35328 | 31334 ft | 421 kts | 58° |
| 2026-05-07 00:22 | 39.09229 | -106.31923 | 30866 ft | 418 kts | 58° |
| 2026-05-07 00:23 | 39.10458 | -106.28541 | 30381 ft | 414 kts | 58° |
| 2026-05-07 00:23 | 39.11674 | -106.25195 | 29801 ft | 411 kts | 58° |
| 2026-05-07 00:23 | 39.12881 | -106.21872 | 29274 ft | 407 kts | 58° |
| 2026-05-07 00:23 | 39.14070 | -106.18588 | 28800 ft | 401 kts | 58° |
| 2026-05-07 00:24 | 39.15229 | -106.15386 | 28288 ft | 397 kts | 58° |
| 2026-05-07 00:24 | 39.16385 | -106.12183 | 27784 ft | 393 kts | 58° |
| 2026-05-07 00:24 | 39.17527 | -106.09009 | 27313 ft | 388 kts | 58° |
| 2026-05-07 00:24 | 39.18658 | -106.05856 | 26811 ft | 386 kts | 58° |
| 2026-05-07 00:25 | 39.19783 | -106.02722 | 26330 ft | 383 kts | 58° |
| 2026-05-07 00:25 | 39.20896 | -105.99618 | 25845 ft | 380 kts | 58° |
| 2026-05-07 00:25 | 39.22006 | -105.96526 | 25389 ft | 378 kts | 59° |
| 2026-05-07 00:25 | 39.23105 | -105.93458 | 24885 ft | 376 kts | 59° |
| 2026-05-07 00:26 | 39.24200 | -105.90400 | 24419 ft | 374 kts | 59° |
| 2026-05-07 00:26 | 39.25294 | -105.87361 | 23984 ft | 373 kts | 59° |
| 2026-05-07 00:26 | 39.26388 | -105.84331 | 23502 ft | 372 kts | 59° |
| 2026-05-07 00:26 | 39.27474 | -105.81319 | 22990 ft | 370 kts | 59° |
| 2026-05-07 00:27 | 39.28556 | -105.78311 | 22537 ft | 368 kts | 59° |
| 2026-05-07 00:27 | 39.29628 | -105.75325 | 22078 ft | 364 kts | 59° |
| 2026-05-07 00:27 | 39.30689 | -105.72371 | 21644 ft | 362 kts | 59° |
| 2026-05-07 00:27 | 39.31731 | -105.69460 | 21498 ft | 352 kts | 59° |
| 2026-05-07 00:28 | 39.32733 | -105.66662 | 21239 ft | 345 kts | 59° |
| 2026-05-07 00:28 | 39.33751 | -105.63865 | 20885 ft | 344 kts | 58° |
| 2026-05-07 00:28 | 39.34775 | -105.61076 | 20483 ft | 343 kts | 59° |
| 2026-05-07 00:28 | 39.35797 | -105.58286 | 20059 ft | 342 kts | 59° |
| 2026-05-07 00:29 | 39.36813 | -105.55507 | 19658 ft | 342 kts | 59° |
| 2026-05-07 00:29 | 39.37828 | -105.52724 | 19243 ft | 342 kts | 59° |
| 2026-05-07 00:30 | 39.40845 | -105.44418 | 18478 ft | 331 kts | 59° |
| 2026-05-07 00:30 | 39.41656 | -105.41674 | 18242 ft | 329 kts | 72° |
| 2026-05-07 00:30 | 39.41808 | -105.38697 | 17838 ft | 332 kts | 84° |
| 2026-05-07 00:30 | 39.41791 | -105.35694 | 17381 ft | 335 kts | 85° |
| 2026-05-07 00:31 | 39.41780 | -105.32678 | 16965 ft | 334 kts | 85° |
| 2026-05-07 00:31 | 39.41777 | -105.29690 | 16573 ft | 331 kts | 85° |
| 2026-05-07 00:31 | 39.41780 | -105.26716 | 16196 ft | 329 kts | 85° |
| 2026-05-07 00:31 | 39.41787 | -105.23818 | 15799 ft | 325 kts | 85° |
| 2026-05-07 00:32 | 39.41797 | -105.20918 | 15504 ft | 322 kts | 85° |
| 2026-05-07 00:32 | 39.41810 | -105.18017 | 15125 ft | 324 kts | 85° |
| 2026-05-07 00:32 | 39.41823 | -105.15094 | 14742 ft | 325 kts | 86° |
| 2026-05-07 00:32 | 39.41836 | -105.12175 | 14394 ft | 326 kts | 86° |
| 2026-05-07 00:33 | 39.41847 | -105.09235 | 14032 ft | 328 kts | 86° |
| 2026-05-07 00:33 | 39.41858 | -105.06285 | 13793 ft | 324 kts | 86° |
| 2026-05-07 00:33 | 39.41867 | -105.03399 | 13627 ft | 314 kts | 86° |
| 2026-05-07 00:33 | 39.41875 | -105.00626 | 13478 ft | 303 kts | 86° |
| 2026-05-07 00:34 | 39.41882 | -104.97954 | 13314 ft | 291 kts | 86° |
| 2026-05-07 00:34 | 39.41889 | -104.95380 | 13066 ft | 284 kts | 86° |
| 2026-05-07 00:34 | 39.41958 | -104.92884 | 12779 ft | 276 kts | 81° |
| 2026-05-07 00:34 | 39.42182 | -104.90451 | 12524 ft | 269 kts | 79° |
| 2026-05-07 00:35 | 39.42418 | -104.88066 | 12337 ft | 266 kts | 79° |
| 2026-05-07 00:35 | 39.42646 | -104.85677 | 12023 ft | 269 kts | 79° |
| 2026-05-07 00:35 | 39.42873 | -104.83276 | 11762 ft | 269 kts | 80° |
| 2026-05-07 00:35 | 39.43089 | -104.80876 | 11493 ft | 269 kts | 80° |
| 2026-05-07 00:36 | 39.43302 | -104.78472 | 11240 ft | 268 kts | 81° |
| 2026-05-07 00:36 | 39.43536 | -104.76108 | 11058 ft | 258 kts | 75° |
| 2026-05-07 00:36 | 39.44090 | -104.73961 | 11010 ft | 247 kts | 64° |
| 2026-05-07 00:36 | 39.44768 | -104.71897 | 11018 ft | 253 kts | 63° |
| 2026-05-07 00:37 | 39.45621 | -104.69909 | 10992 ft | 250 kts | 42° |
| 2026-05-07 00:37 | 39.46977 | -104.68686 | 10995 ft | 231 kts | 18° |
| 2026-05-07 00:37 | 39.48440 | -104.68077 | 10990 ft | 218 kts | 10° |
| 2026-05-07 00:37 | 39.49900 | -104.67587 | 10994 ft | 216 kts | 9° |
| 2026-05-07 00:38 | 39.51363 | -104.67098 | 10997 ft | 217 kts | 10° |
| 2026-05-07 00:38 | 39.52828 | -104.66618 | 10993 ft | 216 kts | 6° |
| 2026-05-07 00:38 | 39.54299 | -104.66419 | 10997 ft | 208 kts | 358° |
| 2026-05-07 00:38 | 39.55709 | -104.66375 | 10839 ft | 199 kts | 356° |
| 2026-05-07 00:39 | 39.57068 | -104.66356 | 10583 ft | 191 kts | 356° |
| 2026-05-07 00:39 | 39.58374 | -104.66342 | 10324 ft | 185 kts | 356° |
| 2026-05-07 00:39 | 39.59648 | -104.66329 | 10103 ft | 182 kts | 356° |
| 2026-05-07 00:39 | 39.60929 | -104.66316 | 9872 ft | 187 kts | 356° |
| 2026-05-07 00:40 | 39.62249 | -104.66302 | 9614 ft | 191 kts | 356° |
| 2026-05-07 00:40 | 39.63572 | -104.66286 | 9341 ft | 191 kts | 357° |
| 2026-05-07 00:40 | 39.64862 | -104.66268 | 9033 ft | 178 kts | 357° |
| 2026-05-07 00:40 | 39.66089 | -104.66254 | 8846 ft | 173 kts | 357° |
| 2026-05-07 00:41 | 39.67253 | -104.66239 | 8600 ft | 162 kts | 357° |
| 2026-05-07 00:41 | 39.68384 | -104.66226 | 8374 ft | 166 kts | 357° |
| 2026-05-07 00:41 | 39.69545 | -104.66214 | 8151 ft | 168 kts | 357° |
| 2026-05-07 00:41 | 39.70718 | -104.66200 | 7923 ft | 168 kts | 357° |
| 2026-05-07 00:42 | 39.71894 | -104.66186 | 7697 ft | 169 kts | 357° |
| 2026-05-07 00:42 | 39.73076 | -104.66172 | 7473 ft | 171 kts | 357° |
| 2026-05-07 00:42 | 39.74271 | -104.66158 | 7249 ft | 173 kts | 358° |
| 2026-05-07 00:42 | 39.75480 | -104.66143 | 7023 ft | 174 kts | 358° |
| 2026-05-07 00:43 | 39.76677 | -104.66129 | 6796 ft | 174 kts | 359° |
| 2026-05-07 00:43 | 39.77890 | -104.66114 | 6577 ft | 175 kts | 359° |
| 2026-05-07 00:43 | 39.79113 | -104.66100 | 6292 ft | 175 kts | 359° |
| 2026-05-07 00:43 | 39.80327 | -104.66092 | 6012 ft | 174 kts | 360° |
| 2026-05-07 00:44 | 39.81538 | -104.66067 | 5740 ft | 174 kts | 1° |
| 2026-05-07 00:44 | 39.82754 | -104.66061 | 5520 ft | 174 kts | 1° |
| 2026-05-07 00:44 | 39.83917 | -104.66057 | 5419 ft | 156 kts | 1° |
| 2026-05-07 00:44 | 39.84831 | -104.66033 | 5405 ft | 105 kts | 1° |
| 2026-05-07 00:45 | 39.85372 | -104.66027 | 5396 ft | 51 kts | 0° |
| 2026-05-07 00:45 | 39.85601 | -104.66022 | 5396 ft | 18 kts | 1° |
| 2026-05-07 00:45 | 39.85672 | -104.66124 | 5392 ft | 18 kts | 266° |
| 2026-05-07 00:45 | 39.85605 | -104.66238 | 5394 ft | 18 kts | 188° |
| 2026-05-07 00:46 | 39.85477 | -104.66238 | 5392 ft | 18 kts | 180° |
| 2026-05-07 00:46 | 39.85350 | -104.66240 | 5397 ft | 18 kts | 181° |
| 2026-05-07 00:46 | 39.85222 | -104.66242 | 5392 ft | 18 kts | 180° |
| 2026-05-07 00:46 | 39.85095 | -104.66243 | 5399 ft | 18 kts | 180° |
| 2026-05-07 00:47 | 39.84968 | -104.66244 | 5397 ft | 18 kts | 180° |
| 2026-05-07 00:47 | 39.84840 | -104.66245 | 5404 ft | 18 kts | 180° |
| 2026-05-07 00:47 | 39.84713 | -104.66245 | 5408 ft | 18 kts | 180° |
| 2026-05-07 00:47 | 39.84586 | -104.66249 | 5410 ft | 18 kts | 181° |
| 2026-05-07 00:48 | 39.84458 | -104.66252 | 5412 ft | 18 kts | 180° |
| 2026-05-07 00:48 | 39.84331 | -104.66254 | 5415 ft | 18 kts | 180° |
| 2026-05-07 00:48 | 39.84247 | -104.66255 | 5417 ft | 18 kts | 180° |
| 2026-05-07 00:48 | 39.84078 | -104.66256 | 5418 ft | 18 kts | 180° |
| 2026-05-07 00:49 | 39.83951 | -104.66256 | 5417 ft | 18 kts | 180° |
| 2026-05-07 00:49 | 39.83824 | -104.66256 | 5419 ft | 18 kts | 180° |
| 2026-05-07 00:49 | 39.83697 | -104.66256 | 5419 ft | 18 kts | 180° |
| 2026-05-07 00:49 | 39.83569 | -104.66255 | 5422 ft | 18 kts | 180° |
| 2026-05-07 00:50 | 39.83483 | -104.66260 | 5435 ft | 18 kts | 184° |
| 2026-05-07 00:50 | 39.83358 | -104.66264 | 5434 ft | 18 kts | 180° |
| 2026-05-07 00:50 | 39.83231 | -104.66265 | 5440 ft | 18 kts | 180° |
| 2026-05-07 00:50 | 39.83103 | -104.66265 | 5445 ft | 18 kts | 180° |
| 2026-05-07 00:51 | 39.82981 | -104.66265 | 5447 ft | 16 kts | 182° |
| 2026-05-07 00:51 | 39.82934 | -104.66379 | 5444 ft | 17 kts | 270° |
| 2026-05-07 00:51 | 39.82934 | -104.66568 | 5430 ft | 20 kts | 270° |
| 2026-05-07 00:51 | 39.82934 | -104.66729 | 5424 ft | 19 kts | 270° |
| 2026-05-07 00:52 | 39.82933 | -104.66911 | 5409 ft | 21 kts | 270° |
| 2026-05-07 00:52 | 39.82935 | -104.67074 | 5412 ft | 15 kts | 276° |
| 2026-05-07 00:52 | 39.82969 | -104.67196 | 5392 ft | 15 kts | 293° |
| 2026-05-07 00:52 | 39.83000 | -104.67309 | 5384 ft | 7 kts | 292° |
| 2026-05-07 00:53 | 39.83041 | -104.67341 | 5388 ft | 7 kts | 350° |
| 2026-05-07 00:53 | 39.83086 | -104.67344 | 5390 ft | 0 kts | 359° |
| 2026-05-07 00:53 | 39.83088 | -104.67344 | 5390 ft | 0 kts | 359° |
| 2026-05-07 00:54 | 39.83091 | -104.67344 | 5389 ft | 0 kts | 0° |
| 2026-05-07 00:54 | 39.83095 | -104.67344 | 5395 ft | 0 kts | 0° |